Flight Track Log - Related Links

Times and Time Zones

All times are in EDT time to prevent confusion due to time zone crossing. See the DAL4969 flight status page for this flight to view local times or setup timezone preferences in your user account.

Time Position Orientation Groundspeed Altitude Reporting Facility
EDT Latitude Longitude Course Direction KTS MPH feet Rate Location/Type
Wed 09:06:54 PM 40.7667 -73.8333 90° East 156 180 1,000  Level New York TRACON
Wed 09:07:54 PM 40.7667 -73.7833 90° East 216 249 2,800 1,950 Climbing New York TRACON
Wed 09:08:54 PM 40.8333 -73.7333 30° Northeast 257 296 4,900 2,316 Climbing New York TRACON
Wed 09:09:48 PM 40.9000 -73.7000 21° North 290 334 7,200 2,308 Climbing New York TRACON
Wed 09:11:43 PM 41.0400 -73.5767 34° Northeast 324 373 11,400 2,057 Climbing Boston Center
Wed 09:12:43 PM 41.1217 -73.5311 23° Northeast 341 392 13,200 2,300 Climbing Boston Center
Wed 09:13:43 PM 41.2225 -73.4694 25° Northeast 361 415 16,000 2,150 Climbing Boston Center
Wed 09:14:43 PM 41.3061 -73.4211 23° Northeast 356 410 17,500 1,300 Climbing Boston Center
Wed 09:15:43 PM 41.4172 -73.3592 23° Northeast 383 441 18,600 1,100 Climbing Boston Center
Wed 09:16:43 PM 41.5233 -73.3606 359° North 404 465 19,700 1,400 Climbing Boston Center
Wed 09:17:43 PM 41.6483 -73.3625 359° North 404 465 21,400 1,600 Climbing Boston Center
Wed 09:18:43 PM 41.7631 -73.3586 North 404 465 22,900 800 Climbing Boston Center
Wed 09:19:43 PM 41.8797 -73.3603 359° North 404 465 23,000 50 Climbing Boston Center
Wed 09:20:43 PM 41.9986 -73.3592 360° North 404 465 23,000  Level Boston Center
Wed 09:21:43 PM 42.1133 -73.3553 North 420 483 23,000 -50 Level Boston Center
Wed 09:22:43 PM 42.2300 -73.3400 North 415 478 22,900 -550 Descending Boston Center
Wed 09:23:43 PM 42.3122 -73.2150 48° Northeast 386 444 21,900 -950 Descending Boston Center
Wed 09:24:43 PM 42.3797 -73.0836 55° Northeast 420 483 21,000 -950 Descending Boston Center
Wed 09:25:43 PM 42.4492 -72.9494 55° Northeast 427 491 20,000 -1,000 Descending Boston Center
Wed 09:26:43 PM 42.5228 -72.8119 54° Northeast 418 481 19,000 -850 Descending Boston Center
Wed 09:27:43 PM 42.5689 -72.6683 66° East 407 468 18,300 -1,700 Descending Boston Center
Wed 09:28:43 PM 42.6006 -72.5389 72° East 402 463 15,600 -2,750 Descending Boston Center
Wed 09:29:43 PM 42.6339 -72.3978 72° East 396 456 12,800 -2,400 Descending Boston Center
Wed 09:30:43 PM 42.6628 -72.2706 73° East 374 430 10,800 -1,800 Descending Boston Center
Wed 09:31:43 PM 42.6897 -72.1492 73° East 319 367 9,200 -1,600 Descending Boston Center
Wed 09:32:43 PM 42.7122 -72.0531 72° East 295 339 7,600 -1,850 Descending Boston Center
Wed 09:33:43 PM 42.7369 -71.9425 73° East 282 325 5,500 -1,300 Descending Boston Center
Wed 09:34:43 PM 42.7594 -71.8492 72° East 282 325 5,000 -950 Descending Boston Center
Wed 09:35:43 PM 42.7839 -71.7414 73° East 277 319 3,600 -1,000 Descending Boston Center
Wed 09:36:43 PM 42.8019 -71.6647 72° East 255 293 3,000 -700 Descending Boston Center
Wed 09:37:43 PM 42.8244 -71.5767 71° East 232 267 2,200 -500 Descending Boston Center
Wed 09:38:43 PM 42.8617 -71.5336 40° Northeast 197 227 2,000 -550 Descending Boston Center
Wed 09:39:43 PM 42.8986 -71.4878 42° Northeast 171 197 1,100 -800 Descending Boston Center
Wed 09:40:43 PM 42.9233 -71.4561 43° Northeast 143 165 400 2,950 Descending Boston Center
Wed 09:41:43 PM 42.9586 -71.4158 40° Northeast 143 165 7,000 3,300 Climbing Boston Center
Wed 09:42:43 PM 42.9894 -71.3786 41° Northeast 143 165 7,000  Level Boston Center
Wed 09:43:43 PM 43.0142 -71.3497 41° Northeast 143 165 7,000  Level Boston Center
Wed 09:44:43 PM 43.0514 -71.3064 40° Northeast 143 165 7,000  Level Boston Center
Wed 09:45:43 PM 43.0514 -71.3064 144° Southeast 143 165 7,000  Level Boston Center
Wed 09:47:00 PM 42.9604 -71.3922 215° Southwest  Level FlightAware Approximate
Wed 09:54:00 PM 42.9328 -71.4358 216° Southwest  Level Estimated
Wed 09:55:00 PM 42.9328 -71.4358 216° Southwest  Level Estimated
Wed 09:56:00 PM 42.9328 -71.4358 216° Southwest  Level Estimated

Login

Don't have an account? Register now (free) for customized features, flight alerts, and more!